Time;durP1;ratioP1;P1;durP2;ratioP2;P2;SDS_P1;SDS_P2;PMS_P1;PMS_P2;Temp;Humidity;BMP_temperature;BMP_pressure;BME280_temperature;BME280_humidity;BME280_pressure;Samples;Min_cycle;Max_cycle;Signal;HPM_P1;HPM_P2
2022/01/01 00:02:22;;;;;;;28.40;8.65;;;;;;;-149.78;100.00;50459.72;5113409;28;20398;-68
2022/01/01 00:04:48;;;;;;;77.18;26.08;;;;;;;-149.78;100.00;50491.00;5113422;28;20028;-68
2022/01/01 00:07:15;;;;;;;45.17;14.85;;;;;;;-149.78;100.00;50461.66;5113278;28;20088;-68
2022/01/01 00:09:41;;;;;;;56.10;18.02;;;;;;;-149.78;100.00;50487.09;5095226;28;20032;-68
2022/01/01 00:12:07;;;;;;;53.75;15.75;;;;;;;-149.78;100.00;50459.72;5095331;28;20340;-68
2022/01/01 00:14:33;;;;;;;52.10;16.25;;;;;;;-149.78;100.00;50467.53;5113210;28;20051;-68
2022/01/01 00:16:59;;;;;;;34.60;12.50;;;;;;;-149.78;100.00;50494.91;5113243;28;20060;-68
2022/01/01 00:19:25;;;;;;;32.72;11.32;;;;;;;-149.78;100.00;50463.63;5114410;28;20416;-68
2022/01/01 00:21:51;;;;;;;36.60;9.98;;;;;;;-149.78;100.00;50475.34;5082221;28;20475;-68
2022/01/01 00:24:16;;;;;;;25.45;8.88;;;;;;;-149.78;100.00;50467.53;5116970;28;20048;-68
2022/01/01 00:26:42;;;;;;;34.03;9.48;;;;;;;-149.78;100.00;50475.34;5117094;28;20529;-68
2022/01/01 00:29:07;;;;;;;30.83;8.55;;;;;;;-149.78;100.00;50492.97;5116556;28;20406;-68
2022/01/01 00:31:33;;;;;;;32.33;9.15;;;;;;;-149.78;100.00;50453.84;5116913;28;20027;-68
2022/01/01 00:33:59;;;;;;;26.52;7.40;;;;;;;-149.78;100.00;50475.34;5116794;28;20411;-68
2022/01/01 00:36:29;;;;;;;35.67;7.18;;;;;;;-149.78;100.00;50463.63;5116462;28;20379;-68
2022/01/01 00:38:54;;;;;;;26.58;7.30;;;;;;;-149.78;100.00;50481.22;5116588;28;20031;-68
2022/01/01 00:41:21;;;;;;;29.85;7.88;;;;;;;-149.78;100.00;50463.63;5116418;28;20394;-68
2022/01/01 00:43:46;;;;;;;19.70;7.32;;;;;;;-149.78;100.00;50487.09;5116603;28;20027;-69
2022/01/01 00:46:12;;;;;;;34.65;8.52;;;;;;;-149.78;100.00;50471.44;5116342;28;20038;-68
2022/01/01 00:48:38;;;;;;;31.98;8.23;;;;;;;-149.78;100.00;50463.63;5116427;28;20421;-68
2022/01/01 00:51:03;;;;;;;28.98;8.00;;;;;;;-149.78;100.00;50457.75;5116286;28;20036;-68
2022/01/01 00:53:29;;;;;;;28.10;8.38;;;;;;;-149.78;100.00;50471.44;5116752;28;20038;-68
2022/01/01 00:55:55;;;;;;;31.27;8.85;;;;;;;-149.78;100.00;50485.13;5116803;28;20032;-68
2022/01/01 00:58:21;;;;;;;29.13;8.63;;;;;;;-149.78;100.00;50461.66;5116605;28;20060;-68
2022/01/01 01:00:48;;;;;;;25.70;8.07;;;;;;;-149.78;100.00;50491.00;5116682;28;20036;-68
2022/01/01 01:03:16;;;;;;;25.58;7.50;;;;;;;-149.78;100.00;50487.09;5116344;28;20035;-68
2022/01/01 01:05:43;;;;;;;31.58;9.05;;;;;;;-149.78;100.00;50459.72;5116291;28;20140;-68
2022/01/01 01:08:10;;;;;;;26.38;8.55;;;;;;;-149.78;100.00;50491.00;5116418;28;20039;-68
2022/01/01 01:10:37;;;;;;;32.50;9.52;;;;;;;-149.78;100.00;50491.00;5116550;28;20526;-68
2022/01/01 01:13:05;;;;;;;29.88;8.77;;;;;;;-149.78;100.00;50467.53;5097799;28;20052;-68
2022/01/01 01:15:32;;;;;;;31.58;9.23;;;;;;;-149.78;100.00;50465.56;5116327;28;20080;-68
2022/01/01 01:17:59;;;;;;;27.05;8.65;;;;;;;-149.78;100.00;50479.28;5116071;28;20440;-68
2022/01/01 01:20:27;;;;;;;30.45;8.93;;;;;;;-149.78;100.00;50465.56;5116303;28;20100;-68
2022/01/01 01:22:53;;;;;;;30.08;9.23;;;;;;;-149.78;100.00;50467.53;5116166;28;20579;-68
2022/01/01 01:25:21;;;;;;;33.20;9.25;;;;;;;-149.78;100.00;50491.00;5116103;28;20059;-68
2022/01/01 01:27:49;;;;;;;39.35;10.10;;;;;;;-149.78;100.00;50471.44;5116041;28;20043;-68
2022/01/01 01:30:16;;;;;;;31.65;9.65;;;;;;;-149.78;100.00;50471.44;5115656;28;20031;-68
2022/01/01 01:32:43;;;;;;;25.80;8.50;;;;;;;-149.78;100.00;50455.81;5115575;28;20088;-68
2022/01/01 01:35:09;;;;;;;27.50;9.00;;;;;;;-149.78;100.00;50485.13;5115923;28;20050;-68
2022/01/01 01:37:35;;;;;;;25.58;9.00;;;;;;;-149.78;100.00;50483.19;5115843;28;20027;-68
2022/01/01 01:40:03;;;;;;;28.20;8.57;;;;;;;-149.78;100.00;50418.63;5063981;28;20031;-68
2022/01/01 01:42:29;;;;;;;40.33;12.48;;;;;;;-149.78;100.00;50453.84;5114556;28;20046;-68
2022/01/01 01:44:56;;;;;;;31.00;9.25;;;;;;;-149.78;100.00;50447.97;5115799;28;20027;-68
2022/01/01 01:47:31;;;;;;;28.83;8.95;;;;;;;-149.78;100.00;50455.81;5115659;28;20027;-68
2022/01/01 01:49:59;;;;;;;30.42;9.05;;;;;;;-149.78;100.00;50487.09;5115652;28;20379;-68
2022/01/01 01:52:29;;;;;;;19.55;7.60;;;;;;;-149.78;100.00;50459.72;5115640;28;20043;-68
2022/01/01 01:54:55;;;;;;;23.38;8.70;;;;;;;-149.78;100.00;50459.72;5097091;28;20138;-68
2022/01/01 01:57:21;;;;;;;24.45;8.70;;;;;;;-149.78;100.00;50438.19;5115340;28;20115;-68
2022/01/01 01:59:47;;;;;;;30.33;9.15;;;;;;;-149.78;100.00;50459.72;5115559;28;20444;-68
2022/01/01 02:02:13;;;;;;;32.35;8.90;;;;;;;-149.78;100.00;50459.72;5115047;28;20038;-68
2022/01/01 02:04:40;;;;;;;22.30;8.93;;;;;;;-149.78;100.00;50432.31;5115467;28;20066;-68
2022/01/01 02:07:09;;;;;;;25.83;8.27;;;;;;;-149.78;100.00;50444.06;5115038;28;20467;-68
2022/01/01 02:09:35;;;;;;;22.58;8.93;;;;;;;-149.78;100.00;50471.44;5096903;28;20084;-68
2022/01/01 02:12:08;;;;;;;23.17;8.35;;;;;;;-149.78;100.00;50498.81;5113493;28;20052;-68
2022/01/01 02:17:14;;;;;;;23.15;8.88;;;;;;;-149.78;100.00;50494.91;5114723;28;20046;-68
2022/01/01 02:19:49;;;;;;;28.75;9.65;;;;;;;-149.78;100.00;50455.81;5115037;28;20367;-68
2022/01/01 02:22:15;;;;;;;26.02;9.93;;;;;;;-149.78;100.00;50471.44;5114828;28;20073;-68
2022/01/01 02:24:41;;;;;;;25.88;9.05;;;;;;;-149.78;100.00;50487.09;5114868;28;20042;-68
2022/01/01 02:27:07;;;;;;;23.58;9.48;;;;;;;-149.78;100.00;50479.28;5115037;28;20042;-68
2022/01/01 02:29:32;;;;;;;27.55;9.40;;;;;;;-149.78;100.00;50483.19;5114777;28;20370;-68
2022/01/01 02:31:59;;;;;;;22.60;8.85;;;;;;;-149.78;100.00;50471.44;5114706;28;20084;-68
2022/01/01 02:34:25;;;;;;;25.33;9.88;;;;;;;-149.78;100.00;50481.22;5114679;28;20045;-68
2022/01/01 02:36:51;;;;;;;22.95;10.23;;;;;;;-149.78;100.00;50444.06;5114664;28;20032;-68
2022/01/01 02:39:22;;;;;;;31.17;10.05;;;;;;;-149.78;100.00;50459.72;5114668;28;20070;-68
2022/01/01 02:41:50;;;;;;;31.08;11.75;;;;;;;-149.78;100.00;50428.41;5114693;28;20032;-68
2022/01/01 02:44:16;;;;;;;28.98;10.75;;;;;;;-149.78;100.00;50463.63;5114535;28;20076;-68
2022/01/01 02:46:42;;;;;;;26.33;10.60;;;;;;;-149.78;100.00;50481.22;5114676;28;20047;-68
2022/01/01 02:49:07;;;;;;;33.83;12.90;;;;;;;-149.78;100.00;50479.28;5096174;28;20080;-68
2022/01/01 02:51:33;;;;;;;29.92;11.32;;;;;;;-149.78;100.00;50463.63;5114357;28;20126;-68
2022/01/01 02:53:59;;;;;;;30.33;11.90;;;;;;;-149.78;100.00;50459.72;5096191;28;20028;-68
2022/01/01 02:56:25;;;;;;;27.38;12.07;;;;;;;-149.78;100.00;50455.81;5114272;28;20073;-68
2022/01/01 02:58:51;;;;;;;30.42;12.10;;;;;;;-149.78;100.00;50459.72;5114514;28;20041;-68
2022/01/01 03:01:18;;;;;;;32.00;12.00;;;;;;;-149.78;100.00;50473.41;5114183;28;20043;-68
2022/01/01 03:03:44;;;;;;;30.90;12.43;;;;;;;-149.78;100.00;50455.81;5114217;28;20058;-68
2022/01/01 03:06:10;;;;;;;32.50;11.60;;;;;;;-149.78;100.00;50412.78;5113891;28;20467;-68
2022/01/01 03:08:37;;;;;;;27.63;10.85;;;;;;;-149.78;100.00;50465.56;5096164;28;20039;-68
2022/01/01 03:11:02;;;;;;;29.30;10.55;;;;;;;-149.78;100.00;50463.63;5114058;28;20031;-69
2022/01/01 03:13:30;;;;;;;22.15;10.23;;;;;;;-149.78;100.00;50471.44;5095857;28;20055;-68
2022/01/01 03:15:55;;;;;;;27.77;10.13;;;;;;;-149.78;100.00;50481.22;5114077;28;20043;-68
2022/01/01 03:18:21;;;;;;;31.75;11.57;;;;;;;-149.78;100.00;50451.88;5113997;28;20516;-68
2022/01/01 03:20:47;;;;;;;23.40;10.63;;;;;;;-149.78;100.00;50451.88;5113974;28;20081;-68
2022/01/01 03:23:12;;;;;;;21.23;10.70;;;;;;;-149.78;100.00;50451.88;5078743;28;20036;-68
2022/01/01 03:25:38;;;;;;;20.60;10.20;;;;;;;-149.78;100.00;50440.16;5113850;28;20038;-68
2022/01/01 03:28:05;;;;;;;27.30;10.13;;;;;;;-149.78;100.00;50463.63;5112883;28;20040;-68
2022/01/01 03:30:33;;;;;;;25.25;9.85;;;;;;;-149.78;100.00;50494.91;5113594;28;20057;-68
2022/01/01 03:32:58;;;;;;;23.83;10.00;;;;;;;-149.78;100.00;50461.66;5113433;28;20492;-68
2022/01/01 03:35:24;;;;;;;28.75;10.05;;;;;;;-149.78;100.00;50451.88;5113444;28;20027;-68
2022/01/01 03:37:51;;;;;;;28.95;10.73;;;;;;;-149.78;100.00;50467.53;5113769;28;20070;-68
2022/01/01 03:40:18;;;;;;;20.67;9.68;;;;;;;-149.78;100.00;50455.81;5111647;28;20118;-68
2022/01/01 03:42:44;;;;;;;18.70;8.60;;;;;;;-149.78;100.00;50463.63;5112904;28;20046;-68
2022/01/01 03:45:09;;;;;;;20.73;9.00;;;;;;;-149.78;100.00;50469.50;5113011;28;20058;-68
2022/01/01 03:47:35;;;;;;;17.60;8.48;;;;;;;-149.78;100.00;50463.63;5113246;28;20035;-68
2022/01/01 03:50:02;;;;;;;23.85;8.40;;;;;;;-149.78;100.00;50479.28;5113175;28;20046;-68
2022/01/01 03:52:28;;;;;;;20.52;8.90;;;;;;;-149.78;100.00;50436.25;5113071;28;20046;-68
2022/01/01 03:54:53;;;;;;;19.58;7.88;;;;;;;-149.78;100.00;50471.44;5115044;28;20031;-68
2022/01/01 03:57:21;;;;;;;19.90;7.95;;;;;;;-149.78;100.00;50438.19;5117533;28;20039;-68
2022/01/01 03:59:47;;;;;;;20.55;7.72;;;;;;;-149.78;100.00;50451.88;5117338;28;20067;-68
2022/01/01 04:02:14;;;;;;;22.10;7.15;;;;;;;-149.78;100.00;50428.41;5099256;28;20040;-68
2022/01/01 04:04:40;;;;;;;17.67;7.43;;;;;;;-149.78;100.00;50479.28;5117135;28;20043;-68
2022/01/01 04:07:07;;;;;;;19.92;7.05;;;;;;;-149.78;100.00;50440.16;5116843;28;20127;-68
2022/01/01 04:09:33;;;;;;;19.25;6.95;;;;;;;-149.78;100.00;50463.63;5115791;28;20089;-68
2022/01/01 04:11:59;;;;;;;18.73;7.50;;;;;;;-149.78;100.00;50447.97;5116963;28;20035;-68
2022/01/01 04:14:24;;;;;;;17.95;6.82;;;;;;;-149.78;100.00;50424.50;5116853;28;20044;-68
2022/01/01 04:16:53;;;;;;;15.90;6.80;;;;;;;-149.78;100.00;50479.28;5116020;28;20039;-68
2022/01/01 04:19:22;;;;;;;22.83;6.85;;;;;;;-149.78;100.00;50447.97;5115318;28;20070;-68
2022/01/01 04:21:49;;;;;;;16.08;7.00;;;;;;;-149.78;100.00;50449.94;5116864;28;20379;-68
2022/01/01 04:24:14;;;;;;;19.65;6.57;;;;;;;-149.78;100.00;50461.66;5117068;28;20039;-68
2022/01/01 04:26:40;;;;;;;20.83;6.40;;;;;;;-149.78;100.00;50467.53;5117002;28;20036;-68
2022/01/01 04:29:06;;;;;;;24.30;6.68;;;;;;;-149.78;100.00;50467.53;5116709;28;20035;-68
2022/01/01 04:31:32;;;;;;;27.08;6.00;;;;;;;-149.78;100.00;50455.81;5116775;28;20383;-68
2022/01/01 04:33:57;;;;;;;21.95;6.68;;;;;;;-149.78;100.00;50432.31;5116566;28;20023;-68
2022/01/01 04:36:23;;;;;;;21.13;6.90;;;;;;;-149.78;100.00;50451.88;5116545;28;20031;-68
2022/01/01 04:38:49;;;;;;;14.93;5.88;;;;;;;-149.78;100.00;50506.66;5116615;28;20039;-68
2022/01/01 04:41:16;;;;;;;23.48;6.72;;;;;;;-149.78;100.00;50440.16;5116561;28;20043;-68
2022/01/01 04:43:43;;;;;;;16.58;6.93;;;;;;;-149.78;100.00;50467.53;5116288;28;20047;-68
2022/01/01 04:46:12;;;;;;;12.90;5.93;;;;;;;-149.78;100.00;50440.16;5116454;28;20035;-68
2022/01/01 04:48:40;;;;;;;14.27;6.30;;;;;;;-149.78;100.00;50451.88;5116474;28;20124;-68
2022/01/01 04:51:08;;;;;;;24.58;6.97;;;;;;;-149.78;100.00;50477.31;5116428;28;20034;-68
2022/01/01 04:53:43;;;;;;;18.38;6.30;;;;;;;-149.78;100.00;50447.97;5116327;28;20035;-69
2022/01/01 04:56:09;;;;;;;17.77;6.00;;;;;;;-149.78;100.00;50455.81;5116360;28;20058;-68
2022/01/01 04:58:35;;;;;;;18.40;6.15;;;;;;;-149.78;100.00;50455.81;5116239;28;20036;-68
2022/01/01 05:01:01;;;;;;;23.13;6.50;;;;;;;-149.78;100.00;50416.69;5116283;28;20035;-68
2022/01/01 05:03:27;;;;;;;18.02;7.15;;;;;;;-149.78;100.00;50494.91;5116241;28;20432;-68
2022/01/01 05:05:52;;;;;;;19.25;6.13;;;;;;;-149.78;100.00;50457.75;5096626;28;20071;-68
2022/01/01 05:08:18;;;;;;;18.35;6.25;;;;;;;-149.78;100.00;50436.25;5116145;28;20039;-68
2022/01/01 05:10:43;;;;;;;19.10;6.60;;;;;;;-149.78;100.00;50467.53;5115904;28;20036;-68
2022/01/01 05:13:10;;;;;;;20.70;7.28;;;;;;;-149.78;100.00;50428.41;5115732;28;20051;-68
2022/01/01 05:15:35;;;;;;;16.73;6.88;;;;;;;-149.78;100.00;50436.25;5115906;28;20039;-68
2022/01/01 05:18:01;;;;;;;20.13;6.93;;;;;;;-149.78;100.00;50455.81;5115721;28;20036;-68
2022/01/01 05:20:27;;;;;;;21.25;7.25;;;;;;;-149.78;100.00;50428.41;5115772;28;20098;-68
2022/01/01 05:22:53;;;;;;;22.20;8.18;;;;;;;-149.78;100.00;50447.97;5115934;28;20046;-68
2022/01/01 05:25:18;;;;;;;16.20;6.45;;;;;;;-149.78;100.00;50467.53;5115914;28;20039;-68
2022/01/01 05:27:44;;;;;;;22.45;7.78;;;;;;;-149.78;100.00;50487.09;5097647;28;20044;-68
2022/01/01 05:30:11;;;;;;;23.38;7.50;;;;;;;-149.78;100.00;50463.63;5115911;28;20038;-68
2022/01/01 05:32:37;;;;;;;18.95;7.15;;;;;;;-149.78;100.00;50485.13;5115991;28;20031;-68
2022/01/01 05:35:04;;;;;;;24.90;7.35;;;;;;;-149.78;100.00;50424.50;5097691;28;20379;-68
2022/01/01 05:37:29;;;;;;;22.15;7.22;;;;;;;-149.78;100.00;50424.50;5115806;28;20126;-68
2022/01/01 05:39:55;;;;;;;20.42;7.75;;;;;;;-149.78;100.00;50414.72;5097739;28;20522;-68
2022/01/01 05:42:21;;;;;;;22.38;7.63;;;;;;;-149.78;100.00;50457.75;5115631;28;20467;-68
2022/01/01 05:44:46;;;;;;;17.58;7.00;;;;;;;-149.78;100.00;50471.44;5115775;28;20111;-68
2022/01/01 05:47:12;;;;;;;19.98;6.70;;;;;;;-149.78;100.00;50492.97;5115710;28;20050;-68
2022/01/01 05:49:38;;;;;;;20.08;7.38;;;;;;;-149.78;100.00;50455.81;5115656;28;20032;-68
2022/01/01 05:52:04;;;;;;;26.98;7.80;;;;;;;-149.78;100.00;50479.28;5115586;28;20032;-68
2022/01/01 05:54:30;;;;;;;28.48;7.50;;;;;;;-149.78;100.00;50483.19;5115468;28;20032;-68
2022/01/01 05:56:56;;;;;;;20.73;8.07;;;;;;;-149.78;100.00;50469.50;5115291;28;20043;-68
2022/01/01 05:59:21;;;;;;;24.75;8.00;;;;;;;-149.78;100.00;50432.31;5115592;28;20031;-68
2022/01/01 06:01:47;;;;;;;23.15;7.88;;;;;;;-149.78;100.00;50483.19;5097113;28;20138;-68
2022/01/01 06:04:12;;;;;;;16.80;6.78;;;;;;;-149.78;100.00;50428.41;5115251;28;20036;-68
2022/01/01 06:06:38;;;;;;;23.17;7.70;;;;;;;-149.78;100.00;50447.97;5115368;28;20132;-68
2022/01/01 06:09:03;;;;;;;20.98;7.28;;;;;;;-149.78;100.00;50467.53;5115065;28;20039;-68
2022/01/01 06:11:29;;;;;;;17.17;7.22;;;;;;;-149.78;100.00;50475.34;5115202;28;20085;-68
2022/01/01 06:13:55;;;;;;;21.20;7.25;;;;;;;-149.78;100.00;50447.97;5114878;28;20059;-68
2022/01/01 06:16:20;;;;;;;20.10;7.75;;;;;;;-149.78;100.00;50485.13;5115095;28;20039;-69
2022/01/01 06:18:46;;;;;;;21.80;6.53;;;;;;;-149.78;100.00;50463.63;5114821;28;20047;-68
2022/01/01 06:21:11;;;;;;;22.75;7.90;;;;;;;-149.78;100.00;50471.44;5115128;28;20070;-68
2022/01/01 06:23:39;;;;;;;18.13;7.05;;;;;;;-149.78;100.00;50440.16;5114852;28;20055;-68
2022/01/01 06:26:05;;;;;;;14.27;7.63;;;;;;;-149.78;100.00;50494.91;5114696;28;20424;-68
2022/01/01 06:28:30;;;;;;;15.77;7.00;;;;;;;-149.78;100.00;50459.72;5115016;28;20036;-68
2022/01/01 06:30:56;;;;;;;23.38;8.43;;;;;;;-149.78;100.00;50467.53;5096835;28;20031;-68
2022/01/01 06:33:22;;;;;;;18.10;7.10;;;;;;;-149.78;100.00;50481.22;5114876;28;20081;-68
2022/01/01 06:35:48;;;;;;;20.48;7.05;;;;;;;-149.78;100.00;50465.56;5114643;28;20092;-68
2022/01/01 06:38:15;;;;;;;24.08;7.22;;;;;;;-149.78;100.00;50457.75;5114576;28;20031;-68
2022/01/01 06:40:42;;;;;;;25.17;8.00;;;;;;;-149.78;100.00;50473.41;5114662;28;20032;-68
2022/01/01 06:43:11;;;;;;;20.17;7.45;;;;;;;-149.78;100.00;50487.09;5114582;28;20032;-68
2022/01/01 06:45:36;;;;;;;20.48;7.43;;;;;;;-149.78;100.00;50487.09;5114601;28;20379;-68
2022/01/01 06:48:02;;;;;;;24.20;6.43;;;;;;;-149.78;100.00;50483.19;5114541;28;20039;-68
2022/01/01 06:50:28;;;;;;;23.27;6.68;;;;;;;-149.78;100.00;50475.34;5114444;28;20044;-68
2022/01/01 06:52:54;;;;;;;22.05;7.00;;;;;;;-149.78;100.00;50483.19;5114556;28;20107;-68
2022/01/01 06:55:19;;;;;;;19.33;6.78;;;;;;;-149.78;100.00;50440.16;5114612;28;20398;-68
2022/01/01 06:57:46;;;;;;;19.77;6.80;;;;;;;-149.78;100.00;50479.28;5114255;28;20187;-68
2022/01/01 07:00:13;;;;;;;18.17;6.90;;;;;;;-149.78;100.00;50467.53;5114232;28;20046;-68
2022/01/01 07:02:44;;;;;;;22.92;6.68;;;;;;;-149.78;100.00;50436.25;5114118;28;20027;-68
2022/01/01 07:05:11;;;;;;;22.10;7.00;;;;;;;-149.78;100.00;50451.88;5114168;28;20116;-68
2022/01/01 07:07:37;;;;;;;18.20;6.60;;;;;;;-149.78;100.00;50481.22;5114169;28;20168;-68
2022/01/01 07:10:08;;;;;;;22.00;6.70;;;;;;;-149.78;100.00;50463.63;5114224;28;20655;-68
2022/01/01 07:12:35;;;;;;;23.38;7.15;;;;;;;-149.78;100.00;50451.88;5095976;28;20032;-68
2022/01/01 07:15:03;;;;;;;18.50;7.35;;;;;;;-149.78;100.00;50438.19;5114013;28;20059;-68
2022/01/01 07:17:28;;;;;;;15.45;6.70;;;;;;;-149.78;100.00;50479.28;5114032;28;20032;-68
2022/01/01 07:19:54;;;;;;;20.23;6.55;;;;;;;-149.78;100.00;50432.31;5114086;28;20348;-68
2022/01/01 07:22:19;;;;;;;20.73;6.13;;;;;;;-149.78;100.00;50467.53;5113960;28;20367;-68
2022/01/01 07:24:45;;;;;;;22.55;6.32;;;;;;;-149.78;100.00;50459.72;5113744;28;20118;-68
2022/01/01 07:27:12;;;;;;;20.52;6.20;;;;;;;-149.78;100.00;50475.34;5113796;28;20038;-68
2022/01/01 07:29:41;;;;;;;17.85;5.95;;;;;;;-149.78;100.00;50471.44;5113228;28;20429;-68
2022/01/01 07:32:07;;;;;;;19.88;6.93;;;;;;;-149.78;100.00;50479.28;5113841;28;20429;-68
2022/01/01 07:34:32;;;;;;;17.20;6.13;;;;;;;-149.78;100.00;50455.81;5113845;28;20042;-68
2022/01/01 07:36:58;;;;;;;20.52;7.68;;;;;;;-149.78;100.00;50449.94;5113760;28;20114;-68
2022/01/01 07:39:24;;;;;;;20.35;6.97;;;;;;;-149.78;100.00;50467.53;5113982;28;20123;-68
2022/01/01 07:41:50;;;;;;;23.85;6.45;;;;;;;-149.78;100.00;50463.63;5113486;28;20050;-68
2022/01/01 07:44:15;;;;;;;18.88;6.85;;;;;;;-149.78;100.00;50506.66;5113621;28;20031;-68
2022/01/01 07:46:41;;;;;;;22.67;6.90;;;;;;;-149.78;100.00;50475.34;5113485;28;20521;-68
2022/01/01 07:49:07;;;;;;;17.92;6.70;;;;;;;-149.78;100.00;50467.53;5113646;28;20039;-68
2022/01/01 07:51:33;;;;;;;30.02;6.68;;;;;;;-149.78;100.00;50479.28;5113564;28;20031;-68
2022/01/01 07:53:59;;;;;;;16.02;7.32;;;;;;;-149.78;100.00;50479.28;5113631;28;20035;-68
2022/01/01 07:56:25;;;;;;;20.70;6.93;;;;;;;-149.78;100.00;50483.19;5113915;28;20040;-68
2022/01/01 07:58:50;;;;;;;36.88;8.00;;;;;;;-149.78;100.00;50471.44;5113393;28;20031;-68
2022/01/01 08:01:16;;;;;;;16.98;6.85;;;;;;;-149.78;100.00;50451.88;5113588;28;20066;-68
2022/01/01 08:03:43;;;;;;;23.65;5.97;;;;;;;-149.78;100.00;50487.09;5113396;28;20481;-68
2022/01/01 08:06:08;;;;;;;18.05;6.97;;;;;;;-149.78;100.00;50471.44;5113505;28;20035;-68
2022/01/01 08:08:34;;;;;;;13.85;5.47;;;;;;;-149.78;100.00;50463.63;5113533;28;20387;-68
2022/01/01 08:11:00;;;;;;;20.38;7.13;;;;;;;-149.78;100.00;50463.63;5113490;28;20473;-68
2022/01/01 08:13:26;;;;;;;26.80;6.88;;;;;;;-149.78;100.00;50461.66;5113409;28;20038;-68
2022/01/01 08:15:53;;;;;;;22.08;6.10;;;;;;;-149.78;100.00;50459.72;5113275;28;20040;-68
2022/01/01 08:18:20;;;;;;;14.50;5.88;;;;;;;-149.78;100.00;50467.53;5113712;28;20039;-68
2022/01/01 08:20:47;;;;;;;20.45;6.82;;;;;;;-149.78;100.00;50471.44;5113389;28;20039;-68
2022/01/01 08:23:14;;;;;;;20.85;6.22;;;;;;;-149.78;100.00;50483.19;5095146;28;20051;-68
2022/01/01 08:25:40;;;;;;;18.00;5.90;;;;;;;-149.78;100.00;50500.78;5113212;28;20023;-68
2022/01/01 08:28:06;;;;;;;18.77;6.72;;;;;;;-149.78;100.00;50487.09;5113257;28;20500;-68
2022/01/01 08:30:35;;;;;;;17.85;6.18;;;;;;;-149.78;100.00;50483.19;5113321;28;20091;-68
2022/01/01 08:33:02;;;;;;;18.00;5.65;;;;;;;-149.78;100.00;50457.75;5113285;28;20036;-68
2022/01/01 08:35:28;;;;;;;20.40;5.72;;;;;;;-149.78;100.00;50440.16;5113299;28;20039;-68
2022/01/01 08:37:54;;;;;;;22.92;6.68;;;;;;;-149.78;100.00;50504.69;5078264;28;20478;-68
2022/01/01 08:40:20;;;;;;;17.55;7.00;;;;;;;-149.78;100.00;50481.22;5114184;28;20066;-67
2022/01/01 08:42:46;;;;;;;20.05;6.15;;;;;;;-149.78;100.00;50475.34;5098749;28;20509;-68
2022/01/01 08:45:11;;;;;;;19.17;6.18;;;;;;;-149.78;100.00;50496.88;5116924;28;20040;-68
2022/01/01 08:47:37;;;;;;;19.15;5.60;;;;;;;-149.78;100.00;50502.75;5116696;28;20031;-68
2022/01/01 08:50:03;;;;;;;20.90;6.95;;;;;;;-149.78;100.00;50455.81;5116800;28;20054;-68
2022/01/01 08:52:29;;;;;;;17.17;6.10;;;;;;;-149.78;100.00;50459.72;5116993;28;20054;-68
2022/01/01 08:54:55;;;;;;;19.55;5.63;;;;;;;-149.78;100.00;50475.34;5116681;28;20474;-68
2022/01/01 08:57:23;;;;;;;21.42;5.63;;;;;;;-149.78;100.00;50483.19;5116817;28;20549;-68
2022/01/01 08:59:49;;;;;;;25.52;6.07;;;;;;;-149.78;100.00;50475.34;5116832;28;20487;-68
2022/01/01 09:02:15;;;;;;;21.35;5.90;;;;;;;-149.78;100.00;50467.53;5116470;28;20110;-68
2022/01/01 09:04:41;;;;;;;17.50;5.10;;;;;;;-149.78;100.00;50465.56;5116554;28;20502;-68
2022/01/01 09:07:07;;;;;;;22.80;5.35;;;;;;;-149.78;100.00;50485.13;5098407;28;20059;-68
2022/01/01 09:09:33;;;;;;;18.50;5.18;;;;;;;-149.78;100.00;50463.63;5116438;28;20130;-68
2022/01/01 09:11:58;;;;;;;13.80;4.85;;;;;;;-149.78;100.00;50471.44;5116500;28;20040;-68
2022/01/01 09:14:25;;;;;;;21.63;5.85;;;;;;;-149.78;100.00;50455.81;5116155;28;20047;-68
2022/01/01 09:16:50;;;;;;;17.63;5.45;;;;;;;-149.78;100.00;50483.19;5116443;28;20039;-68
2022/01/01 09:19:18;;;;;;;16.83;6.00;;;;;;;-149.78;100.00;50444.06;5116373;28;20040;-68
2022/01/01 09:21:44;;;;;;;16.50;5.15;;;;;;;-149.78;100.00;50457.75;5116100;28;20486;-68
2022/01/01 09:24:10;;;;;;;17.60;5.25;;;;;;;-149.78;100.00;50516.44;5115930;28;20035;-68
2022/01/01 09:26:36;;;;;;;13.13;5.60;;;;;;;-149.78;100.00;50469.50;5115768;28;20047;-68
2022/01/01 09:29:04;;;;;;;18.15;4.70;;;;;;;-149.78;100.00;50465.56;5097638;28;20050;-68
2022/01/01 09:31:31;;;;;;;14.45;5.13;;;;;;;-149.78;100.00;50455.81;5115487;28;20042;-68
2022/01/01 09:33:57;;;;;;;19.08;5.53;;;;;;;-149.78;100.00;50447.97;5115488;28;20046;-68
2022/01/01 09:36:22;;;;;;;21.38;4.63;;;;;;;-149.78;100.00;50469.50;5115348;28;20111;-68
2022/01/01 09:38:48;;;;;;;19.80;5.30;;;;;;;-149.78;100.00;50455.81;5115444;28;20035;-68
2022/01/01 09:41:15;;;;;;;16.13;5.03;;;;;;;-149.78;100.00;50475.34;5115368;28;20047;-68
2022/01/01 09:43:41;;;;;;;23.80;5.20;;;;;;;-149.78;100.00;50483.19;5115351;28;20036;-68
2022/01/01 09:46:11;;;;;;;16.00;5.10;;;;;;;-149.78;100.00;50504.69;5115502;28;20028;-68
2022/01/01 09:48:38;;;;;;;23.40;5.45;;;;;;;-149.78;100.00;50489.03;5115656;28;20035;-67
2022/01/01 09:51:04;;;;;;;13.07;5.30;;;;;;;-149.78;100.00;50477.31;5115755;28;20049;-68
2022/01/01 09:53:31;;;;;;;17.95;5.35;;;;;;;-149.78;100.00;50432.31;5115129;28;20036;-68
2022/01/01 09:55:59;;;;;;;16.25;5.40;;;;;;;-149.78;100.00;50471.44;5115651;28;20036;-68
2022/01/01 09:58:26;;;;;;;15.70;5.25;;;;;;;-149.78;100.00;50420.59;5115545;28;20043;-68
2022/01/01 10:00:52;;;;;;;23.15;5.38;;;;;;;-149.78;100.00;50463.63;5115364;28;20032;-68
2022/01/01 10:03:35;;;;;;;23.17;7.28;;;;;;;-149.78;100.00;50438.19;5097073;28;20129;-68
2022/01/01 10:06:03;;;;;;;;;;;;;;;-149.78;100.00;50459.72;5115918;28;20036;-68
2022/01/01 10:08:29;;;;;;;15.95;4.55;;;;;;;-149.78;100.00;50440.16;5115292;28;19918;-68
2022/01/01 10:10:55;;;;;;;13.43;4.70;;;;;;;-149.78;100.00;50440.16;5115363;28;20031;-68
2022/01/01 10:13:33;;;;;;;14.10;4.40;;;;;;;-149.78;100.00;50432.31;5115159;28;20077;-68
2022/01/01 10:16:01;;;;;;;16.55;5.10;;;;;;;-149.78;100.00;50436.25;5114988;28;20130;-68
2022/01/01 10:18:33;;;;;;;12.85;4.65;;;;;;;-149.78;100.00;50471.44;5115053;28;20137;-68
2022/01/01 10:21:08;;;;;;;15.38;5.05;;;;;;;-149.78;100.00;50444.06;5115162;28;20028;-68
2022/01/01 10:23:36;;;;;;;12.30;4.88;;;;;;;-149.78;100.00;50459.72;5114876;28;20023;-68
2022/01/01 10:29:08;;;;;;;19.95;5.03;;;;;;;-149.78;100.00;50436.25;5114894;28;20031;-68
2022/01/01 10:31:34;;;;;;;16.95;4.90;;;;;;;-149.78;100.00;50430.38;5114730;28;20059;-68
2022/01/01 10:34:01;;;;;;;14.50;4.40;;;;;;;-149.78;100.00;50459.72;5114834;28;20051;-68
2022/01/01 10:36:30;;;;;;;24.67;5.35;;;;;;;-149.78;100.00;50436.25;5114905;28;20039;-68
2022/01/01 10:39:18;;;;;;;24.00;6.18;;;;;;;-149.78;100.00;50436.25;5114790;28;20031;-68
2022/01/01 10:41:46;;;;;;;23.90;4.78;;;;;;;-149.78;100.00;50461.66;5114524;28;20092;-68
2022/01/01 10:44:12;;;;;;;23.75;5.70;;;;;;;-149.78;100.00;50432.31;5114724;28;20039;-68
2022/01/01 10:46:38;;;;;;;17.98;4.72;;;;;;;-149.78;100.00;50436.25;5114543;28;20028;-68
2022/01/01 10:52:15;;;;;;;21.95;5.05;;;;;;;-149.78;100.00;50436.25;5075941;28;20043;-68
2022/01/01 10:55:03;;;;;;;21.98;5.90;;;;;;;-149.78;100.00;50453.84;5114514;28;20118;-68
2022/01/01 10:57:37;;;;;;;20.02;4.93;;;;;;;-149.78;100.00;50440.16;5114337;28;20035;-68
2022/01/01 11:00:24;;;;;;;15.05;4.68;;;;;;;-149.78;100.00;50440.16;5114333;28;20027;-68
2022/01/01 11:02:59;;;;;;;29.20;4.70;;;;;;;-149.78;100.00;50491.00;5113975;28;20136;-68
2022/01/01 11:05:32;;;;;;;21.85;5.05;;;;;;;-149.78;100.00;50440.16;5113459;28;20035;-68
2022/01/01 11:07:59;;;;;;;20.55;4.75;;;;;;;-149.78;100.00;50424.50;5114115;28;20538;-68
2022/01/01 11:10:26;;;;;;;23.20;5.20;;;;;;;-149.78;100.00;50416.69;5114262;28;20370;-68